createdAt,value
2022-08-28T00:01:38.503Z,21.02
2022-08-28T00:04:07.639Z,20.96
2022-08-28T00:06:36.732Z,20.92
2022-08-28T00:09:08.158Z,20.89
2022-08-28T00:11:40.768Z,20.86
2022-08-28T00:14:11.811Z,20.83
2022-08-28T00:16:42.605Z,20.84
2022-08-28T00:19:12.622Z,20.81
2022-08-28T00:21:41.917Z,20.65
2022-08-28T00:24:11.066Z,20.72
2022-08-28T00:26:58.284Z,20.66
2022-08-28T00:29:27.362Z,20.72
2022-08-28T00:31:57.889Z,20.81
2022-08-28T00:34:33.425Z,20.80
2022-08-28T00:37:03.222Z,20.59
2022-08-28T00:39:32.382Z,20.66
2022-08-28T00:42:01.680Z,20.62
2022-08-28T00:44:31.430Z,20.65
2022-08-28T00:47:02.245Z,20.69
2022-08-28T00:49:35.942Z,20.67
2022-08-28T00:52:11.966Z,20.53
2022-08-28T00:54:58.413Z,20.58
2022-08-28T00:57:32.172Z,20.61
2022-08-28T01:00:01.676Z,20.53
2022-08-28T01:02:32.344Z,20.32
2022-08-28T01:05:01.514Z,20.36
2022-08-28T01:07:31.029Z,20.36
2022-08-28T01:10:01.093Z,20.48
2022-08-28T01:12:33.373Z,20.38
2022-08-28T01:15:10.735Z,20.52
2022-08-28T01:17:49.088Z,20.50
2022-08-28T01:20:23.337Z,20.38
2022-08-28T01:23:03.323Z,20.29
2022-08-28T01:25:36.635Z,20.30
2022-08-28T01:28:10.420Z,20.31
2022-08-28T01:30:41.239Z,20.38
2022-08-28T01:33:10.261Z,20.37
2022-08-28T01:35:45.052Z,20.31
2022-08-28T01:38:20.072Z,20.33
2022-08-28T01:40:53.625Z,20.51
2022-08-28T01:43:26.298Z,20.38
2022-08-28T01:45:57.763Z,20.32
2022-08-28T01:48:28.123Z,20.25
2022-08-28T01:50:57.383Z,20.13
2022-08-28T01:53:32.666Z,20.13
2022-08-28T01:56:06.074Z,20.12
2022-08-28T01:58:38.396Z,20.19
2022-08-28T02:01:11.787Z,20.23
2022-08-28T02:03:43.357Z,20.17
2022-08-28T02:06:16.057Z,20.16
2022-08-28T02:08:45.637Z,20.26
2022-08-28T02:11:16.685Z,20.24
2022-08-28T02:13:45.892Z,20.23
2022-08-28T02:16:20.607Z,20.17
2022-08-28T02:18:50.267Z,20.26
2022-08-28T02:21:19.316Z,20.01
2022-08-28T02:23:48.932Z,20.02
2022-08-28T02:26:19.812Z,20.03
2022-08-28T02:28:50.072Z,19.94
2022-08-28T02:31:19.282Z,19.98
2022-08-28T02:33:48.356Z,20.08
2022-08-28T02:36:18.439Z,20.11
2022-08-28T02:38:48.407Z,20.11
2022-08-28T02:41:18.919Z,19.97
2022-08-28T02:43:49.070Z,20.02
2022-08-28T02:46:18.466Z,20.09
2022-08-28T02:48:47.559Z,19.99
2022-08-28T02:51:16.963Z,20.00
2022-08-28T02:53:46.068Z,19.97
2022-08-28T02:56:15.195Z,19.82
2022-08-28T02:58:45.998Z,19.80
2022-08-28T03:01:15.711Z,19.80
2022-08-28T03:03:45.100Z,19.72
2022-08-28T03:06:14.999Z,19.73
2022-08-28T03:08:45.076Z,19.62
2022-08-28T03:16:18.538Z,19.57
2022-08-28T03:18:47.925Z,19.49
2022-08-28T03:21:17.013Z,19.53
2022-08-28T03:23:47.302Z,19.54
2022-08-28T03:26:19.619Z,19.57
2022-08-28T03:28:52.026Z,19.46
2022-08-28T03:31:25.317Z,19.49
2022-08-28T03:33:54.784Z,19.61
2022-08-28T03:36:27.743Z,19.68
2022-08-28T03:39:00.240Z,19.60
2022-08-28T03:41:32.007Z,19.64
2022-08-28T03:44:03.183Z,19.77
2022-08-28T03:46:35.247Z,19.72
2022-08-28T03:49:06.117Z,19.69
2022-08-28T03:51:36.415Z,19.64
2022-08-28T03:54:05.976Z,19.65
2022-08-28T03:56:35.226Z,19.70
2022-08-28T03:59:05.571Z,19.62
2022-08-28T04:01:38.343Z,19.70
2022-08-28T04:04:07.755Z,19.54
2022-08-28T04:06:36.952Z,19.42
2022-08-28T04:09:07.269Z,19.41
2022-08-28T04:11:40.748Z,19.47
2022-08-28T04:14:10.212Z,19.48
2022-08-28T04:16:41.613Z,19.56
2022-08-28T04:19:10.873Z,19.55
2022-08-28T04:21:40.372Z,19.66
2022-08-28T04:24:09.889Z,19.69
2022-08-28T04:26:39.326Z,19.79
2022-08-28T04:29:09.194Z,19.87
2022-08-28T04:31:38.351Z,19.88
2022-08-28T04:34:10.996Z,20.05
2022-08-28T04:36:40.480Z,20.00
2022-08-28T04:39:11.166Z,19.91
2022-08-28T04:41:40.580Z,20.04
2022-08-28T04:44:10.081Z,20.10
2022-08-28T04:46:39.722Z,20.21
2022-08-28T04:49:12.138Z,20.33
2022-08-28T04:51:42.307Z,20.25
2022-08-28T04:54:11.903Z,20.32
2022-08-28T04:56:42.044Z,20.36
2022-08-28T04:59:11.931Z,20.48
2022-08-28T05:01:42.853Z,20.68
2022-08-28T05:04:14.350Z,20.69
2022-08-28T05:06:46.453Z,20.72
2022-08-28T05:09:17.561Z,20.92
2022-08-28T05:11:47.946Z,21.13
2022-08-28T05:14:17.825Z,21.13
2022-08-28T05:16:49.133Z,21.21
2022-08-28T05:19:21.611Z,21.32
2022-08-28T05:21:51.615Z,21.42
2022-08-28T05:24:21.379Z,21.48
2022-08-28T05:26:50.930Z,21.58
2022-08-28T05:29:19.886Z,21.75
2022-08-28T05:31:49.614Z,21.77
2022-08-28T05:34:20.796Z,21.91
2022-08-28T05:36:50.230Z,21.98
2022-08-28T05:39:19.824Z,22.11
2022-08-28T05:41:48.829Z,22.19
2022-08-28T05:44:19.719Z,22.28
2022-08-28T05:46:51.115Z,22.49
2022-08-28T05:49:21.827Z,22.67
2022-08-28T05:51:52.487Z,22.74
2022-08-28T05:54:21.729Z,22.66
2022-08-28T05:56:50.876Z,22.83
2022-08-28T05:59:19.922Z,22.99
2022-08-28T06:01:51.077Z,23.22
2022-08-28T06:04:26.505Z,23.31
2022-08-28T06:06:57.316Z,23.47
2022-08-28T06:09:30.093Z,23.80
2022-08-28T06:12:02.998Z,23.89
2022-08-28T06:14:33.546Z,24.08
2022-08-28T06:17:05.204Z,24.15
2022-08-28T06:19:41.291Z,24.31
2022-08-28T06:22:14.799Z,24.35
2022-08-28T06:24:43.917Z,24.52
2022-08-28T06:27:13.302Z,24.63
2022-08-28T06:29:42.362Z,24.95
2022-08-28T06:32:11.502Z,25.02
2022-08-28T06:34:42.419Z,25.18
2022-08-28T06:37:11.652Z,25.14
2022-08-28T06:39:40.682Z,25.30
2022-08-28T06:42:10.627Z,25.34
2022-08-28T06:44:40.634Z,25.44
2022-08-28T06:47:11.279Z,25.34
2022-08-28T06:49:42.033Z,25.61
2022-08-28T06:52:10.924Z,25.80
2022-08-28T06:54:40.031Z,26.01
2022-08-28T06:57:15.081Z,26.25
2022-08-28T06:59:44.389Z,26.18
2022-08-28T07:02:13.577Z,26.45
2022-08-28T07:04:44.440Z,26.66
2022-08-28T07:07:31.312Z,26.78
2022-08-28T07:10:02.117Z,26.95
2022-08-28T07:12:31.974Z,26.93
2022-08-28T07:15:01.816Z,27.02
2022-08-28T07:17:32.983Z,27.01
2022-08-28T07:20:03.917Z,27.23
2022-08-28T07:22:35.891Z,27.31
2022-08-28T07:25:06.066Z,27.54
2022-08-28T07:27:35.105Z,27.65
2022-08-28T07:30:04.473Z,27.67
2022-08-28T07:32:36.318Z,27.69
2022-08-28T07:35:07.889Z,27.65
2022-08-28T07:37:37.798Z,27.53
2022-08-28T07:40:12.574Z,27.86
2022-08-28T07:43:01.453Z,27.81
2022-08-28T07:45:31.382Z,28.15
2022-08-28T07:48:00.534Z,28.28
2022-08-28T07:50:31.885Z,28.41
2022-08-28T07:53:01.163Z,28.40
2022-08-28T07:55:32.004Z,28.56
2022-08-28T07:58:01.791Z,28.76
2022-08-28T08:00:31.040Z,28.80
2022-08-28T08:03:00.215Z,28.60
2022-08-28T08:05:30.707Z,28.80
2022-08-28T08:08:00.262Z,28.70
2022-08-28T08:10:33.924Z,28.71
2022-08-28T08:13:03.949Z,28.94
2022-08-28T08:15:36.033Z,29.21
2022-08-28T08:18:05.645Z,28.99
2022-08-28T08:20:36.246Z,29.15
2022-08-28T08:23:05.226Z,29.24
2022-08-28T08:25:34.649Z,29.48
2022-08-28T08:28:03.992Z,29.34
2022-08-28T08:30:32.912Z,29.65
2022-08-28T08:33:02.213Z,29.93
2022-08-28T08:35:31.246Z,30.03
2022-08-28T08:38:02.963Z,29.87
2022-08-28T08:40:32.829Z,30.02
2022-08-28T08:43:04.141Z,29.97
2022-08-28T08:45:35.732Z,30.52
2022-08-28T08:48:05.395Z,30.82
2022-08-28T08:50:36.871Z,30.85
2022-08-28T08:53:20.804Z,31.10
2022-08-28T08:55:52.315Z,30.82
2022-08-28T08:58:29.232Z,31.21
2022-08-28T09:01:04.996Z,31.19
2022-08-28T09:03:53.039Z,31.45
2022-08-28T09:06:31.133Z,31.27
2022-08-28T09:09:03.895Z,31.50
2022-08-28T09:11:45.617Z,31.81
2022-08-28T09:14:29.594Z,31.95
2022-08-28T09:17:00.602Z,32.20
2022-08-28T09:19:31.233Z,32.18
2022-08-28T09:22:00.579Z,32.40
2022-08-28T09:24:33.057Z,32.44
2022-08-28T09:27:05.789Z,32.52
2022-08-28T09:29:37.429Z,32.97
2022-08-28T09:32:19.690Z,33.38
2022-08-28T09:35:06.022Z,33.15
2022-08-28T09:37:38.263Z,33.20
2022-08-28T09:40:25.190Z,33.20
2022-08-28T09:43:22.359Z,32.96
2022-08-28T09:45:58.270Z,33.06
2022-08-28T09:48:37.023Z,33.90
2022-08-28T09:51:08.009Z,33.41
2022-08-28T09:53:42.997Z,33.49
2022-08-28T09:56:19.005Z,33.99
2022-08-28T09:58:53.502Z,34.11
2022-08-28T10:01:40.726Z,34.30
2022-08-28T10:04:30.301Z,34.57
2022-08-28T10:07:05.245Z,34.93
2022-08-28T10:09:46.807Z,34.22
2022-08-28T10:12:32.694Z,34.36
2022-08-28T10:15:10.461Z,35.42
2022-08-28T10:17:50.260Z,36.21
2022-08-28T10:20:31.308Z,36.76
2022-08-28T10:23:14.454Z,37.70
2022-08-28T10:25:55.299Z,37.13
2022-08-28T10:28:41.736Z,38.11
2022-08-28T10:31:16.835Z,39.08
2022-08-28T10:34:04.785Z,39.18
2022-08-28T10:36:35.986Z,42.51
2022-08-28T10:39:25.452Z,41.43
2022-08-28T10:41:59.763Z,42.75
2022-08-28T10:44:39.909Z,43.03
2022-08-28T10:47:11.056Z,44.50
2022-08-28T10:49:42.919Z,46.70
2022-08-28T10:52:17.443Z,46.66
2022-08-28T10:54:51.754Z,43.84
2022-08-28T10:57:34.018Z,44.17
2022-08-28T11:00:12.282Z,45.20
2022-08-28T11:02:45.207Z,46.49
2022-08-28T11:05:15.138Z,47.29
2022-08-28T11:07:50.774Z,47.93
2022-08-28T11:10:24.893Z,45.01
2022-08-28T11:12:54.605Z,43.35
2022-08-28T11:15:52.618Z,46.14
2022-08-28T11:19:00.863Z,47.72
2022-08-28T11:21:33.096Z,47.41
2022-08-28T11:24:07.372Z,44.74
2022-08-28T11:26:53.156Z,43.10
2022-08-28T11:30:01.603Z,40.82
2022-08-28T11:33:00.110Z,41.34
2022-08-28T11:35:43.596Z,43.45
2022-08-28T11:38:15.585Z,45.20
2022-08-28T11:40:58.036Z,46.84
2022-08-28T11:43:37.540Z,45.66
2022-08-28T11:46:17.498Z,46.66
2022-08-28T11:48:52.619Z,47.41
2022-08-28T11:51:54.267Z,47.04
2022-08-28T11:54:39.256Z,47.89
2022-08-28T11:57:15.499Z,46.56
2022-08-28T12:00:02.806Z,48.15
2022-08-28T12:03:17.060Z,47.15
2022-08-28T12:05:50.486Z,41.25
2022-08-28T12:09:11.994Z,38.88
2022-08-28T12:11:55.021Z,36.99
2022-08-28T12:15:06.015Z,36.66
2022-08-28T12:17:52.531Z,36.47
2022-08-28T12:20:44.624Z,36.31
2022-08-28T12:23:39.927Z,36.72
2022-08-28T12:26:21.039Z,36.63
2022-08-28T12:28:53.223Z,36.32
2022-08-28T12:32:06.072Z,37.93
2022-08-28T12:34:50.958Z,40.73
2022-08-28T12:37:43.963Z,43.81
2022-08-28T12:40:26.171Z,44.62
2022-08-28T12:42:58.843Z,43.71
2022-08-28T12:45:32.024Z,40.36
2022-08-28T12:48:05.564Z,37.16
2022-08-28T12:50:38.364Z,35.31
2022-08-28T12:53:13.416Z,34.39
2022-08-28T12:55:45.554Z,33.60
2022-08-28T12:58:29.031Z,33.25
2022-08-28T13:01:00.559Z,33.25
2022-08-28T13:03:30.572Z,32.91
2022-08-28T13:06:05.143Z,32.49
2022-08-28T13:08:35.835Z,32.03
2022-08-28T13:11:06.992Z,31.78
2022-08-28T13:13:40.207Z,31.96
2022-08-28T13:16:11.252Z,31.84
2022-08-28T13:18:45.364Z,31.49
2022-08-28T13:21:37.311Z,30.68
2022-08-28T13:24:29.151Z,30.94
2022-08-28T13:27:06.895Z,30.79
2022-08-28T13:29:37.956Z,30.36
2022-08-28T13:32:09.740Z,29.95
2022-08-28T13:34:48.076Z,30.19
2022-08-28T13:37:44.212Z,30.30
2022-08-28T13:40:38.181Z,30.63
2022-08-28T13:43:11.157Z,30.61
2022-08-28T13:45:43.945Z,30.86
2022-08-28T13:48:16.878Z,31.28
2022-08-28T13:50:49.141Z,32.00
2022-08-28T13:53:20.273Z,31.70
2022-08-28T13:55:51.933Z,31.42
2022-08-28T13:58:23.472Z,31.66
2022-08-28T14:00:53.387Z,31.61
2022-08-28T14:03:38.211Z,31.53
2022-08-28T14:06:11.980Z,31.30
2022-08-28T14:08:43.412Z,30.72
2022-08-28T14:11:14.473Z,30.73
2022-08-28T14:13:47.294Z,30.58
2022-08-28T14:16:26.268Z,30.93
2022-08-28T14:18:56.114Z,31.08
2022-08-28T14:21:25.608Z,31.18
2022-08-28T14:23:55.014Z,31.98
2022-08-28T14:26:24.171Z,32.94
2022-08-28T14:29:04.066Z,32.88
2022-08-28T14:31:37.072Z,33.45
2022-08-28T14:34:07.023Z,34.47
2022-08-28T14:36:36.760Z,35.40
2022-08-28T14:39:08.114Z,36.00
2022-08-28T14:41:37.836Z,36.55
2022-08-28T14:44:09.194Z,35.33
2022-08-28T14:46:39.099Z,34.40
2022-08-28T14:49:13.315Z,33.65
2022-08-28T14:51:44.543Z,35.04
2022-08-28T14:54:16.274Z,36.72
2022-08-28T14:56:47.293Z,35.70
2022-08-28T14:59:24.496Z,35.87
2022-08-28T15:01:55.740Z,34.94
2022-08-28T15:04:27.170Z,33.33
2022-08-28T15:06:59.601Z,33.31
2022-08-28T15:09:29.223Z,32.72
2022-08-28T15:11:58.508Z,32.18
2022-08-28T15:14:29.151Z,31.56
2022-08-28T15:16:58.581Z,31.43
2022-08-28T15:19:30.039Z,30.89
2022-08-28T15:22:00.289Z,30.68
2022-08-28T15:24:34.261Z,30.81
2022-08-28T15:27:04.105Z,29.93
2022-08-28T15:29:34.743Z,29.89
2022-08-28T15:32:05.737Z,30.17
2022-08-28T15:34:35.083Z,30.54
2022-08-28T15:37:07.844Z,30.98
2022-08-28T15:39:54.368Z,31.62
2022-08-28T15:42:24.116Z,31.88
2022-08-28T15:44:56.434Z,32.40
2022-08-28T15:47:27.400Z,32.58
2022-08-28T15:49:57.340Z,33.36
2022-08-28T15:52:26.589Z,33.24
2022-08-28T15:54:55.639Z,32.95
2022-08-28T15:57:24.903Z,33.74
2022-08-28T15:59:55.623Z,33.82
2022-08-28T16:02:26.584Z,33.11
2022-08-28T16:04:56.206Z,32.51
2022-08-28T16:07:25.899Z,31.79
2022-08-28T16:09:55.130Z,31.37
2022-08-28T16:12:25.522Z,31.42
2022-08-28T16:14:56.175Z,31.13
2022-08-28T16:17:25.448Z,30.41
2022-08-28T16:19:55.008Z,30.04
2022-08-28T16:22:24.506Z,30.16
2022-08-28T16:24:53.588Z,30.23
2022-08-28T16:27:22.932Z,30.24
2022-08-28T16:29:52.961Z,29.83
2022-08-28T16:32:23.970Z,29.37
2022-08-28T16:34:53.553Z,28.92
2022-08-28T16:37:23.283Z,28.81
2022-08-28T16:39:56.100Z,28.69
2022-08-28T16:42:27.676Z,28.34
2022-08-28T16:45:00.841Z,28.33
2022-08-28T16:47:33.179Z,28.03
2022-08-28T16:50:06.201Z,27.80
2022-08-28T16:52:38.042Z,27.44
2022-08-28T16:55:09.398Z,27.46
2022-08-28T16:57:40.278Z,27.45
2022-08-28T17:00:13.650Z,27.32
2022-08-28T17:02:46.648Z,27.22
2022-08-28T17:05:17.598Z,27.15
2022-08-28T17:07:47.561Z,26.96
2022-08-28T17:10:19.724Z,26.79
2022-08-28T17:12:49.308Z,26.47
2022-08-28T17:15:19.831Z,26.56
2022-08-28T17:17:52.841Z,26.41
2022-08-28T17:20:39.411Z,26.06
2022-08-28T17:23:09.016Z,25.72
2022-08-28T17:25:38.339Z,25.77
2022-08-28T17:28:07.795Z,25.89
2022-08-28T17:30:36.978Z,25.72
2022-08-28T17:33:08.246Z,25.27
2022-08-28T17:35:41.902Z,25.10
2022-08-28T17:38:11.634Z,25.04
2022-08-28T17:40:41.020Z,24.92
2022-08-28T17:43:10.256Z,24.70
2022-08-28T17:45:39.325Z,24.72
2022-08-28T17:48:10.651Z,24.72
2022-08-28T17:50:41.023Z,24.64
2022-08-28T17:53:10.662Z,24.54
2022-08-28T17:55:39.712Z,24.63
2022-08-28T17:58:08.778Z,24.57
2022-08-28T18:00:38.321Z,24.60
2022-08-28T18:03:07.689Z,24.38
2022-08-28T18:05:38.557Z,24.40
2022-08-28T18:08:08.370Z,24.19
2022-08-28T18:10:37.560Z,24.26
2022-08-28T18:13:07.858Z,24.26
2022-08-28T18:15:40.221Z,24.19
2022-08-28T18:18:13.656Z,24.31
2022-08-28T18:20:44.701Z,24.11
2022-08-28T18:23:13.803Z,24.02
2022-08-28T18:25:50.622Z,24.04
2022-08-28T18:28:22.631Z,23.96
2022-08-28T18:30:53.945Z,23.89
2022-08-28T18:33:30.994Z,23.77
2022-08-28T18:36:02.404Z,23.79
2022-08-28T18:38:35.133Z,23.71
2022-08-28T18:41:05.281Z,23.66
2022-08-28T18:43:35.070Z,23.67
2022-08-28T18:46:06.203Z,23.87
2022-08-28T18:48:37.866Z,23.82
2022-08-28T18:51:10.041Z,24.10
2022-08-28T18:53:42.326Z,23.83
2022-08-28T18:56:13.047Z,23.82
2022-08-28T18:58:43.199Z,23.66
2022-08-28T19:01:12.547Z,23.81
2022-08-28T19:03:41.716Z,23.76
2022-08-28T19:06:15.638Z,23.80
2022-08-28T19:08:46.118Z,23.59
2022-08-28T19:11:17.209Z,23.48
2022-08-28T19:13:46.313Z,23.55
2022-08-28T19:16:19.064Z,23.40
2022-08-28T19:18:48.918Z,23.59
2022-08-28T19:21:24.986Z,23.50
2022-08-28T19:23:55.897Z,23.72
2022-08-28T19:26:26.213Z,23.53
2022-08-28T19:28:56.109Z,23.58
2022-08-28T19:31:26.923Z,23.59
2022-08-28T19:33:57.079Z,23.60
2022-08-28T19:36:30.213Z,23.72
2022-08-28T19:39:01.104Z,23.64
2022-08-28T19:41:30.409Z,23.49
2022-08-28T19:43:59.347Z,23.28
2022-08-28T19:46:29.811Z,23.38
2022-08-28T19:49:01.296Z,23.22
2022-08-28T19:51:32.069Z,23.22
2022-08-28T19:54:03.184Z,23.27
2022-08-28T19:56:34.656Z,23.19
2022-08-28T19:59:06.230Z,23.24
2022-08-28T20:01:38.559Z,23.36
2022-08-28T20:04:09.529Z,23.33
2022-08-28T20:06:40.609Z,23.18
2022-08-28T20:09:12.828Z,23.27
2022-08-28T20:11:45.039Z,23.26
2022-08-28T20:14:15.306Z,23.20
2022-08-28T20:16:47.222Z,23.36
2022-08-28T20:19:17.016Z,23.23
2022-08-28T20:21:50.011Z,23.06
2022-08-28T20:24:24.096Z,23.10
2022-08-28T20:26:54.355Z,23.05
2022-08-28T20:29:24.374Z,23.23
2022-08-28T20:31:54.198Z,23.00
2022-08-28T20:34:24.573Z,23.13
2022-08-28T20:36:55.543Z,23.22
2022-08-28T20:39:25.275Z,23.37
2022-08-28T20:41:54.301Z,23.41
2022-08-28T20:44:23.898Z,23.24
2022-08-28T20:46:53.754Z,23.28
2022-08-28T20:49:25.375Z,23.16
2022-08-28T20:51:57.646Z,23.16
2022-08-28T20:54:30.218Z,23.12
2022-08-28T20:57:02.452Z,23.13
2022-08-28T20:59:37.228Z,23.28
2022-08-28T21:02:12.319Z,23.14
2022-08-28T21:04:43.298Z,23.20
2022-08-28T21:07:15.664Z,23.21
2022-08-28T21:10:05.181Z,23.12
2022-08-28T21:12:36.818Z,23.05
2022-08-28T21:15:06.967Z,23.12
2022-08-28T21:17:38.104Z,23.05
2022-08-28T21:20:10.624Z,23.14
2022-08-28T21:22:42.323Z,23.04
2022-08-28T21:25:15.381Z,22.96
2022-08-28T21:27:45.371Z,22.91
2022-08-28T21:30:18.242Z,23.02
2022-08-28T21:32:49.098Z,23.08
2022-08-28T21:35:20.463Z,22.95
2022-08-28T21:37:51.220Z,23.08
2022-08-28T21:40:22.561Z,23.18
2022-08-28T21:42:51.900Z,23.19
2022-08-28T21:45:22.081Z,23.00
2022-08-28T21:47:51.042Z,22.98
2022-08-28T21:50:22.078Z,22.95
2022-08-28T21:52:52.776Z,23.17
2022-08-28T21:55:22.497Z,22.99
2022-08-28T21:57:51.466Z,23.13
2022-08-28T22:00:23.455Z,22.86
2022-08-28T22:02:52.687Z,23.13
2022-08-28T22:05:22.284Z,22.94
2022-08-28T22:07:52.585Z,23.12
2022-08-28T22:10:23.049Z,23.08
2022-08-28T22:12:52.088Z,23.24
2022-08-28T22:15:21.254Z,23.04
2022-08-28T22:17:50.443Z,23.15
2022-08-28T22:20:20.130Z,23.27
2022-08-28T22:23:06.908Z,23.33
2022-08-28T22:25:40.672Z,23.05
2022-08-28T22:28:11.919Z,22.91
2022-08-28T22:30:41.628Z,22.86
2022-08-28T22:33:11.514Z,23.06
2022-08-28T22:35:40.634Z,23.11
2022-08-28T22:38:11.209Z,23.09
2022-08-28T22:40:41.740Z,23.01
2022-08-28T22:43:10.889Z,23.07
2022-08-28T22:45:39.983Z,22.89
2022-08-28T22:48:10.387Z,23.01
2022-08-28T22:50:39.990Z,23.03
2022-08-28T22:53:09.769Z,23.08
2022-08-28T22:55:43.444Z,23.10
2022-08-28T22:58:14.292Z,23.06
2022-08-28T23:00:43.831Z,22.96
2022-08-28T23:03:13.475Z,23.14
2022-08-28T23:05:42.675Z,23.07
2022-08-28T23:08:11.781Z,22.84
2022-08-28T23:10:58.695Z,22.94
2022-08-28T23:13:28.947Z,22.55
2022-08-28T23:15:58.765Z,22.63
2022-08-28T23:18:28.160Z,22.79
2022-08-28T23:20:57.802Z,22.76
2022-08-28T23:23:27.330Z,22.74
2022-08-28T23:25:57.793Z,22.82
2022-08-28T23:28:27.022Z,22.61
2022-08-28T23:30:56.446Z,22.62
2022-08-28T23:33:25.541Z,22.42
2022-08-28T23:35:54.813Z,22.51
2022-08-28T23:38:24.427Z,22.70
2022-08-28T23:40:56.780Z,22.54
2022-08-28T23:43:26.487Z,22.65
2022-08-28T23:45:56.290Z,22.53
2022-08-28T23:48:26.024Z,22.61
2022-08-28T23:50:55.834Z,22.72
2022-08-28T23:53:24.872Z,22.60
2022-08-28T23:55:53.861Z,22.19
2022-08-28T23:58:25.836Z,22.50
